Time;durP1;ratioP1;P1;durP2;ratioP2;P2;SDS_P1;SDS_P2;PMS_P1;PMS_P2;Temp;Humidity;BMP_temperature;BMP_pressure;BME280_temperature;BME280_humidity;BME280_pressure;Samples;Min_cycle;Max_cycle;Signal;HPM_P1;HPM_P2
2024/01/16 00:00:20;;;;;;;0.00;0.00;;;;;;;-0.96;84.52;146021.31;4914868;29;20235;-64
2024/01/16 00:02:47;;;;;;;0.00;0.00;;;;;;;-0.95;84.89;146022.53;4916260;29;20580;-64
2024/01/16 00:05:14;;;;;;;0.00;0.00;;;;;;;-0.97;86.06;146017.56;4912359;29;20722;-64
2024/01/16 00:07:42;;;;;;;0.00;0.00;;;;;;;-0.97;83.80;146017.56;4911781;29;20231;-64
2024/01/16 00:10:09;;;;;;;0.00;0.00;;;;;;;-0.97;84.85;146017.56;4911728;29;20243;-64
2024/01/16 00:12:36;;;;;;;0.00;0.00;;;;;;;-0.94;83.16;146025.00;4907712;29;20235;-64
2024/01/16 00:15:02;;;;;;;0.00;0.00;;;;;;;-0.91;85.06;146032.41;4911940;29;20239;-64
2024/01/16 00:17:29;;;;;;;0.00;0.00;;;;;;;-0.97;85.57;146018.84;4918656;29;20246;-64
2024/01/16 00:19:56;;;;;;;0.00;0.00;;;;;;;-0.94;86.60;146026.25;4917705;29;20262;-64
2024/01/16 00:22:22;;;;;;;0.00;0.00;;;;;;;-0.95;82.78;146022.53;4916380;29;20591;-64
2024/01/16 00:24:50;;;;;;;0.00;0.00;;;;;;;-0.94;84.13;146025.00;4915832;28;20250;-64
2024/01/16 00:27:17;;;;;;;0.00;0.00;;;;;;;-0.96;86.19;146021.31;4911667;29;20220;-64
2024/01/16 00:29:43;;;;;;;0.00;0.00;;;;;;;-0.94;85.45;146025.00;4916792;29;20232;-64
2024/01/16 00:32:10;;;;;;;0.00;0.00;;;;;;;-1.01;85.02;146008.97;4911920;29;20239;-64
2024/01/16 00:34:37;;;;;;;0.00;0.00;;;;;;;-1.03;85.19;146004.00;4915159;29;20644;-64
2024/01/16 00:37:03;;;;;;;0.00;0.00;;;;;;;-1.02;86.24;146005.22;4912244;29;20595;-65
2024/01/16 00:39:30;;;;;;;0.00;0.00;;;;;;;-1.02;86.46;146005.22;4892696;29;20239;-64
2024/01/16 00:41:58;;;;;;;0.00;0.00;;;;;;;-1.00;84.64;146011.44;4892514;29;20244;-64
2024/01/16 00:44:24;;;;;;;0.00;0.00;;;;;;;-1.05;84.59;146000.28;4894088;29;20235;-64
2024/01/16 00:46:51;;;;;;;0.00;0.00;;;;;;;-1.04;85.14;146001.53;4901043;29;20231;-65
2024/01/16 00:49:18;;;;;;;0.00;0.00;;;;;;;-1.02;86.01;146006.47;4911026;29;20233;-64
2024/01/16 00:51:44;;;;;;;0.00;0.00;;;;;;;-1.02;84.82;146006.47;4910258;29;20240;-64
2024/01/16 00:54:11;;;;;;;0.00;0.00;;;;;;;-1.02;84.58;146006.47;4910954;29;20231;-64
2024/01/16 00:56:37;;;;;;;0.00;0.00;;;;;;;-0.99;84.16;146012.63;4913636;29;20695;-64
2024/01/16 00:59:05;;;;;;;0.00;0.00;;;;;;;-1.02;84.56;146005.22;4912835;29;20559;-64
2024/01/16 01:01:32;;;;;;;0.00;0.00;;;;;;;-0.99;84.25;146012.63;4894879;29;20291;-64
2024/01/16 01:03:58;;;;;;;0.00;0.00;;;;;;;-0.98;81.51;146015.09;4901183;29;20240;-63
2024/01/16 01:06:25;;;;;;;0.00;0.00;;;;;;;-1.00;81.68;146010.16;4910752;28;20244;-63
2024/01/16 01:08:52;;;;;;;0.00;0.00;;;;;;;-0.98;84.61;146016.38;4909963;29;20301;-63
2024/01/16 01:11:18;;;;;;;0.00;0.00;;;;;;;-1.04;82.02;146002.75;4915770;29;20247;-64
2024/01/16 01:13:47;;;;;;;0.00;0.00;;;;;;;-1.05;82.48;146000.28;4901913;29;20238;-63
2024/01/16 01:16:15;;;;;;;0.00;0.00;;;;;;;-1.03;81.73;146004.00;4905825;29;20314;-64
2024/01/16 01:18:42;;;;;;;0.00;0.00;;;;;;;-1.04;82.72;146002.75;4917104;29;20315;-64
2024/01/16 01:21:08;;;;;;;0.00;0.00;;;;;;;-1.05;82.84;146000.28;4907939;29;20232;-64
2024/01/16 01:23:35;;;;;;;0.00;0.00;;;;;;;-1.05;82.70;145999.06;4910941;29;20771;-64
2024/01/16 01:26:03;;;;;;;0.00;0.00;;;;;;;-1.06;82.20;145996.59;4909541;29;20239;-64
2024/01/16 01:28:30;;;;;;;0.00;0.00;;;;;;;-1.05;82.62;145999.06;4909413;29;20591;-63
2024/01/16 01:30:56;;;;;;;0.00;0.00;;;;;;;-1.06;84.33;145997.81;4911064;29;20706;-64
2024/01/16 01:33:24;;;;;;;0.00;0.00;;;;;;;-1.06;82.28;145996.59;4910751;29;20241;-63
2024/01/16 01:35:51;;;;;;;0.00;0.00;;;;;;;-1.09;83.91;145990.44;4909311;29;20218;-63
2024/01/16 01:38:19;;;;;;;0.00;0.00;;;;;;;-1.10;83.40;145986.72;4910784;29;20239;-63
2024/01/16 01:40:45;;;;;;;0.00;0.00;;;;;;;-1.08;83.83;145992.91;4912976;29;20262;-63
2024/01/16 01:43:19;;;;;;;0.00;0.00;;;;;;;-1.14;81.99;145978.09;4911075;29;20235;-65
2024/01/16 01:45:54;;;;;;;0.00;0.00;;;;;;;-1.12;83.69;145983.03;4913258;29;20239;-64
2024/01/16 01:48:20;;;;;;;0.00;0.00;;;;;;;-1.15;82.39;145974.38;4910746;29;20261;-64
2024/01/16 01:50:49;;;;;;;0.00;0.00;;;;;;;-1.12;82.03;145983.03;4901608;29;20248;-64
2024/01/16 01:53:15;;;;;;;0.00;0.00;;;;;;;-1.19;81.57;145965.75;4887775;29;20231;-64
2024/01/16 01:55:42;;;;;;;0.00;0.00;;;;;;;-1.15;83.69;145974.38;4902831;29;20238;-63
2024/01/16 01:58:09;;;;;;;0.00;0.00;;;;;;;-1.26;82.66;145948.47;4925811;29;20282;-63
2024/01/16 02:00:35;;;;;;;0.00;0.00;;;;;;;-1.22;82.49;145958.34;4913591;29;20219;-63
2024/01/16 02:03:01;;;;;;;0.00;0.00;;;;;;;-1.24;82.22;145954.59;4906370;29;20231;-63
2024/01/16 02:05:29;;;;;;;0.00;0.00;;;;;;;-1.28;82.58;145944.72;4911833;29;20252;-63
2024/01/16 02:07:57;;;;;;;0.00;0.00;;;;;;;-1.31;83.63;145936.09;4908976;29;20308;-63
2024/01/16 02:10:24;;;;;;;0.00;0.00;;;;;;;-1.31;83.49;145937.31;4909469;29;20258;-63
2024/01/16 02:12:51;;;;;;;0.00;0.00;;;;;;;-1.31;82.86;145936.09;4908230;29;20235;-63
2024/01/16 02:15:18;;;;;;;0.00;0.00;;;;;;;-1.32;83.29;145933.63;4907354;29;20668;-64
2024/01/16 02:17:45;;;;;;;0.00;0.00;;;;;;;-1.38;82.11;145920.03;4911266;29;20232;-64
2024/01/16 02:20:12;;;;;;;0.00;0.00;;;;;;;-1.44;82.00;145906.47;4904853;29;20303;-64
2024/01/16 02:22:40;;;;;;;0.00;0.00;;;;;;;-1.55;82.80;145880.50;4908493;29;20723;-64
2024/01/16 02:25:08;;;;;;;0.00;0.00;;;;;;;-1.64;82.96;145858.34;4909750;29;20316;-64
2024/01/16 02:27:35;;;;;;;0.00;0.00;;;;;;;-1.61;83.96;145865.75;4914703;29;20231;-64
2024/01/16 02:30:02;;;;;;;0.00;0.00;;;;;;;-1.64;84.86;145858.34;4908494;29;20230;-65
2024/01/16 02:32:28;;;;;;;0.00;0.00;;;;;;;-1.71;84.34;145842.25;4905410;29;20582;-65
2024/01/16 02:34:55;;;;;;;0.00;0.00;;;;;;;-1.72;84.59;145839.78;4907661;29;20234;-65
2024/01/16 02:37:22;;;;;;;0.00;0.00;;;;;;;-1.70;84.21;145843.53;4909656;29;20226;-63
2024/01/16 02:39:48;;;;;;;0.00;0.00;;;;;;;-1.73;84.38;145837.31;4908188;29;20305;-63
2024/01/16 02:42:16;;;;;;;0.00;0.00;;;;;;;-1.67;84.70;145852.16;4903993;28;20237;-63
2024/01/16 02:44:43;;;;;;;0.00;0.00;;;;;;;-1.72;83.72;145838.59;4901993;29;20222;-64
2024/01/16 02:47:10;;;;;;;0.00;0.00;;;;;;;-1.68;84.18;145848.47;4912139;29;20235;-64
2024/01/16 02:49:37;;;;;;;0.00;0.00;;;;;;;-1.63;83.78;145862.00;4913342;29;20364;-63
2024/01/16 02:52:04;;;;;;;0.00;0.00;;;;;;;-1.50;82.47;145891.66;4910145;28;20310;-64
2024/01/16 02:54:31;;;;;;;0.00;0.00;;;;;;;-1.55;83.56;145880.50;4912619;29;20245;-63
2024/01/16 02:56:58;;;;;;;0.00;0.00;;;;;;;-1.57;83.74;145875.56;4909169;29;20304;-64
2024/01/16 02:59:28;;;;;;;0.00;0.00;;;;;;;-1.51;82.81;145890.41;4913134;29;20250;-64
2024/01/16 03:01:54;;;;;;;0.00;0.00;;;;;;;-1.54;83.53;145881.78;4905688;28;20234;-64
2024/01/16 03:04:21;;;;;;;0.00;0.00;;;;;;;-1.59;84.46;145870.63;4908804;29;20794;-64
2024/01/16 03:06:47;;;;;;;0.00;0.00;;;;;;;-1.61;84.71;145864.50;4908207;29;20240;-64
2024/01/16 03:09:14;;;;;;;0.00;0.00;;;;;;;-1.60;84.16;145868.22;4909232;29;20235;-64
2024/01/16 03:11:41;;;;;;;0.00;0.00;;;;;;;-1.51;84.55;145889.19;4908705;29;20235;-64
2024/01/16 03:14:08;;;;;;;0.00;0.00;;;;;;;-1.54;83.97;145881.78;4907884;29;20245;-64
2024/01/16 03:16:36;;;;;;;0.00;0.00;;;;;;;-1.43;83.05;145908.94;4911834;29;20233;-64
2024/01/16 03:19:02;;;;;;;0.00;0.00;;;;;;;-1.41;83.16;145913.88;4907075;29;20243;-64
2024/01/16 03:21:29;;;;;;;0.00;0.00;;;;;;;-1.42;83.45;145910.16;4910161;29;20236;-64
2024/01/16 03:23:56;;;;;;;0.00;0.00;;;;;;;-1.42;84.04;145911.41;4908260;29;20237;-64
2024/01/16 03:26:23;;;;;;;0.00;0.00;;;;;;;-1.39;82.25;145917.56;4911428;29;20234;-64
2024/01/16 03:28:49;;;;;;;0.00;0.00;;;;;;;-1.38;82.71;145921.28;4910504;29;20262;-64
2024/01/16 03:31:16;;;;;;;0.00;0.00;;;;;;;-1.41;82.10;145912.63;4907715;29;20243;-64
2024/01/16 03:33:48;;;;;;;0.00;0.00;;;;;;;-1.43;82.51;145907.69;4904601;29;20699;-64
2024/01/16 03:36:15;;;;;;;0.00;0.00;;;;;;;-1.46;82.25;145901.53;4907985;29;20243;-64
2024/01/16 03:38:45;;;;;;;0.00;0.00;;;;;;;-1.54;83.06;145882.97;4908991;29;20303;-64
2024/01/16 03:41:12;;;;;;;0.00;0.00;;;;;;;-1.53;84.26;145885.47;4903706;29;20363;-64
2024/01/16 03:43:38;;;;;;;0.00;0.00;;;;;;;-1.66;83.41;145854.59;4915359;29;20607;-64
2024/01/16 03:46:05;;;;;;;0.00;0.00;;;;;;;-1.80;84.45;145820.03;4907095;29;20243;-64
2024/01/16 03:48:32;;;;;;;0.00;0.00;;;;;;;-1.88;84.46;145801.56;4915084;29;20235;-64
2024/01/16 03:51:00;;;;;;;0.00;0.00;;;;;;;-1.97;85.46;145779.34;4907531;29;20254;-64
2024/01/16 03:53:26;;;;;;;0.00;0.00;;;;;;;-2.16;86.08;145733.69;4918521;29;20249;-64
2024/01/16 03:55:53;;;;;;;0.00;0.00;;;;;;;-2.28;87.39;145705.28;4913950;29;20234;-64
2024/01/16 03:58:20;;;;;;;0.00;0.00;;;;;;;-2.34;88.07;145690.47;4915937;29;20250;-64
2024/01/16 04:00:47;;;;;;;0.00;0.00;;;;;;;-2.39;88.32;145679.41;4915736;29;20242;-63
2024/01/16 04:03:13;;;;;;;0.00;0.00;;;;;;;-2.51;88.90;145651.00;4908063;29;20274;-64
2024/01/16 04:05:40;;;;;;;0.00;0.00;;;;;;;-2.57;90.06;145636.19;4912920;29;20266;-64
2024/01/16 04:08:08;;;;;;;0.00;0.00;;;;;;;-2.67;89.35;145612.75;4906538;29;20552;-64
2024/01/16 04:10:34;;;;;;;0.00;0.00;;;;;;;-2.64;89.68;145620.16;4911945;29;20302;-64
2024/01/16 04:13:01;;;;;;;0.00;0.00;;;;;;;-2.84;88.42;145573.28;4914204;29;20722;-64
2024/01/16 04:15:29;;;;;;;0.00;0.00;;;;;;;-3.02;87.32;145530.16;4908355;29;20259;-64
2024/01/16 04:17:56;;;;;;;0.00;0.00;;;;;;;-3.19;89.57;145488.22;4892961;29;20219;-64
2024/01/16 04:20:23;;;;;;;0.03;0.03;;;;;;;-3.36;90.24;145448.75;4906018;29;20231;-64
2024/01/16 04:22:49;;;;;;;0.00;0.00;;;;;;;-3.54;90.46;145404.38;4912260;29;20250;-64
2024/01/16 04:25:17;;;;;;;0.00;0.00;;;;;;;-3.61;92.38;145388.38;4915829;29;20252;-64
2024/01/16 04:27:46;;;;;;;0.00;0.00;;;;;;;-3.72;93.79;145363.72;4905614;29;20230;-64
2024/01/16 04:32:55;;;;;;;0.00;0.00;;;;;;;-4.11;93.78;145270.06;5054456;23;20232;-65
2024/01/16 04:35:21;;;;;;;0.00;0.00;;;;;;;-4.21;94.48;145245.41;4978734;28;20750;-65
2024/01/16 04:37:48;;;;;;;0.00;0.00;;;;;;;-4.41;95.91;145198.66;4980025;28;20231;-64
2024/01/16 04:40:15;;;;;;;0.00;0.00;;;;;;;-4.42;99.26;145196.19;4962491;28;20275;-64
2024/01/16 04:42:43;;;;;;;0.00;0.00;;;;;;;-4.57;98.51;145160.44;4981486;28;20231;-64
2024/01/16 04:45:10;;;;;;;0.00;0.00;;;;;;;-4.70;98.71;145128.41;4972224;28;20226;-64
2024/01/16 04:47:37;;;;;;;0.00;0.00;;;;;;;-4.72;100.00;145124.75;4985655;28;20238;-64
2024/01/16 04:50:04;;;;;;;0.00;0.00;;;;;;;-4.76;100.00;145116.09;4981250;28;20224;-64
2024/01/16 04:52:31;;;;;;;0.00;0.00;;;;;;;-4.85;100.00;145092.72;4985516;28;20235;-64
2024/01/16 04:54:57;;;;;;;0.00;0.00;;;;;;;-4.83;100.00;145097.66;4981828;28;20232;-63
2024/01/16 04:57:24;;;;;;;0.10;0.10;;;;;;;-4.90;100.00;145082.88;4985152;28;20235;-64
2024/01/16 04:59:52;;;;;;;0.00;0.00;;;;;;;-4.98;100.00;145063.16;4984525;28;20222;-64
2024/01/16 05:02:18;;;;;;;0.00;0.00;;;;;;;-5.03;100.00;145050.84;4982876;28;20227;-65
2024/01/16 05:04:45;;;;;;;0.00;0.00;;;;;;;-5.14;100.00;145025.00;4985590;28;20254;-65
2024/01/16 05:07:12;;;;;;;0.10;0.10;;;;;;;-5.23;100.00;145004.06;4981492;28;20240;-65
2024/01/16 05:09:38;;;;;;;0.00;0.00;;;;;;;-5.32;100.00;144980.69;4985120;28;20231;-65
2024/01/16 05:12:05;;;;;;;0.00;0.00;;;;;;;-5.41;100.00;144961.00;4982159;28;20230;-63
2024/01/16 05:14:32;;;;;;;0.00;0.00;;;;;;;-5.46;100.00;144948.69;4985217;28;20234;-64
2024/01/16 05:17:00;;;;;;;0.00;0.00;;;;;;;-5.49;100.00;144942.56;4982429;28;20270;-63
2024/01/16 05:19:26;;;;;;;0.00;0.00;;;;;;;-5.51;100.00;144937.63;4984184;28;20239;-63
2024/01/16 05:21:53;;;;;;;0.00;0.00;;;;;;;-5.51;100.00;144937.63;4980869;28;20231;-64
2024/01/16 05:24:20;;;;;;;0.00;0.00;;;;;;;-5.57;100.00;144921.63;4983120;28;20231;-64
2024/01/16 05:26:46;;;;;;;0.10;0.10;;;;;;;-5.58;100.00;144920.41;4986273;28;20228;-64
2024/01/16 05:29:13;;;;;;;0.10;0.10;;;;;;;-5.60;100.00;144915.47;4980869;28;20237;-64
2024/01/16 05:31:41;;;;;;;0.03;0.03;;;;;;;-5.61;100.00;144913.03;4986075;28;20237;-64
2024/01/16 05:34:09;;;;;;;0.00;0.00;;;;;;;-5.67;100.00;144898.25;4981949;28;20322;-64
2024/01/16 05:36:36;;;;;;;0.00;0.00;;;;;;;-5.69;100.00;144893.34;4985408;28;20239;-64
2024/01/16 05:39:03;;;;;;;0.10;0.10;;;;;;;-5.71;100.00;144889.63;4980690;28;20224;-64
2024/01/16 05:41:34;;;;;;;0.03;0.03;;;;;;;-5.70;100.00;144890.88;4985007;28;20235;-64
2024/01/16 05:44:03;;;;;;;0.00;0.00;;;;;;;-5.69;100.00;144893.34;4970544;28;20224;-64
2024/01/16 05:46:29;;;;;;;0.00;0.00;;;;;;;-5.73;100.00;144884.69;4984422;28;20585;-65
2024/01/16 05:48:56;;;;;;;0.10;0.10;;;;;;;-5.72;100.00;144887.16;4981437;28;20220;-64
2024/01/16 05:51:25;;;;;;;0.00;0.00;;;;;;;-5.65;100.00;144904.38;4984005;28;20292;-64
2024/01/16 05:53:52;;;;;;;0.10;0.10;;;;;;;-5.59;100.00;144916.69;4983944;28;20233;-64
2024/01/16 05:56:18;;;;;;;0.00;0.00;;;;;;;-5.52;100.00;144935.19;4980557;28;20569;-64
2024/01/16 05:58:47;;;;;;;0.00;0.00;;;;;;;-5.52;100.00;144935.19;4983218;28;20251;-64
2024/01/16 06:01:14;;;;;;;0.00;0.00;;;;;;;-5.56;100.00;144925.34;4981397;28;20300;-64
2024/01/16 06:03:41;;;;;;;0.00;0.00;;;;;;;-5.57;100.00;144922.88;4984543;28;20220;-64
2024/01/16 06:06:08;;;;;;;0.03;0.03;;;;;;;-5.54;100.00;144930.25;4979931;28;20613;-64
2024/01/16 06:08:36;;;;;;;0.10;0.10;;;;;;;-5.51;100.00;144936.38;4982708;28;20267;-64
2024/01/16 06:11:02;;;;;;;0.00;0.00;;;;;;;-5.53;100.00;144932.72;4980072;28;20219;-64
2024/01/16 06:13:31;;;;;;;0.00;0.00;;;;;;;-5.46;100.00;144947.47;4984477;28;20231;-64
2024/01/16 06:15:58;;;;;;;0.00;0.00;;;;;;;-5.42;100.00;144957.34;4982213;28;20227;-64
2024/01/16 06:18:24;;;;;;;0.00;0.00;;;;;;;-5.40;100.00;144962.25;4981620;28;20224;-64
2024/01/16 06:20:51;;;;;;;0.00;0.00;;;;;;;-5.36;100.00;144972.09;4981510;28;20227;-64
2024/01/16 06:23:18;;;;;;;0.10;0.10;;;;;;;-5.31;100.00;144984.41;4976152;28;20227;-64
2024/01/16 06:25:46;;;;;;;0.00;0.00;;;;;;;-5.21;100.00;145009.00;4980523;28;20225;-64
2024/01/16 06:28:13;;;;;;;0.00;0.00;;;;;;;-5.19;100.00;145012.69;4980472;28;20258;-64
2024/01/16 06:30:39;;;;;;;0.00;0.00;;;;;;;-5.12;100.00;145029.94;4984173;28;20222;-64
2024/01/16 06:33:06;;;;;;;0.10;0.10;;;;;;;-5.13;100.00;145026.22;4972893;28;20235;-64
2024/01/16 06:35:32;;;;;;;0.10;0.10;;;;;;;-5.08;100.00;145039.78;4985074;28;20580;-64
2024/01/16 06:37:59;;;;;;;0.00;0.00;;;;;;;-5.01;100.00;145054.56;4979596;28;20230;-64
2024/01/16 06:40:25;;;;;;;0.00;0.00;;;;;;;-4.95;100.00;145069.34;4983506;28;20597;-64
2024/01/16 06:42:53;;;;;;;0.00;0.00;;;;;;;-4.94;100.00;145071.81;4983879;28;20316;-64
2024/01/16 06:45:20;;;;;;;0.00;0.00;;;;;;;-4.91;100.00;145079.19;4981706;28;20245;-64
2024/01/16 06:47:47;;;;;;;0.00;0.00;;;;;;;-4.90;100.00;145082.88;4984090;28;20234;-64
2024/01/16 06:50:13;;;;;;;0.10;0.10;;;;;;;-4.89;100.00;145085.31;4972240;28;20919;-64
2024/01/16 06:52:40;;;;;;;0.00;0.00;;;;;;;-4.87;100.00;145089.03;4972095;28;20285;-64
2024/01/16 06:55:07;;;;;;;0.00;0.00;;;;;;;-4.82;100.00;145101.34;4979680;28;20235;-64
2024/01/16 06:57:34;;;;;;;0.00;0.00;;;;;;;-4.77;100.00;145112.41;4983095;28;20650;-65
2024/01/16 07:00:02;;;;;;;0.10;0.10;;;;;;;-4.74;100.00;145121.03;4981015;28;20229;-64
2024/01/16 07:02:29;;;;;;;0.00;0.00;;;;;;;-4.69;100.00;145132.13;4984320;28;20282;-63
2024/01/16 07:04:56;;;;;;;0.00;0.00;;;;;;;-4.72;100.00;145124.75;4980828;28;20245;-63
2024/01/16 07:07:24;;;;;;;0.00;0.00;;;;;;;-4.70;100.00;145128.41;4984869;28;20238;-64
2024/01/16 07:09:51;;;;;;;0.00;0.00;;;;;;;-4.65;100.00;145140.72;4984382;28;20238;-64
2024/01/16 07:12:18;;;;;;;0.00;0.00;;;;;;;-4.63;100.00;145146.91;4985147;28;20290;-63
2024/01/16 07:14:44;;;;;;;0.00;0.00;;;;;;;-4.52;100.00;145171.53;4987067;28;20227;-63
2024/01/16 07:17:12;;;;;;;0.00;0.00;;;;;;;-4.56;100.00;145161.69;4984627;28;20243;-63
2024/01/16 07:19:39;;;;;;;0.00;0.00;;;;;;;-4.53;100.00;145169.06;4985862;28;20238;-63
2024/01/16 07:22:05;;;;;;;0.00;0.00;;;;;;;-4.49;100.00;145178.94;4983811;28;20223;-63
2024/01/16 07:24:32;;;;;;;0.00;0.00;;;;;;;-4.45;100.00;145190.00;4987199;28;20555;-64
2024/01/16 07:26:59;;;;;;;0.00;0.00;;;;;;;-4.43;100.00;145193.72;4984165;28;20229;-64
2024/01/16 07:29:25;;;;;;;0.00;0.00;;;;;;;-4.37;100.00;145208.50;4986558;28;20231;-64
2024/01/16 07:31:53;;;;;;;0.00;0.00;;;;;;;-4.35;100.00;145212.16;4987094;28;20231;-64
2024/01/16 07:34:21;;;;;;;0.00;0.00;;;;;;;-4.26;100.00;145233.13;4983986;28;20635;-64
2024/01/16 07:36:48;;;;;;;0.00;0.00;;;;;;;-4.20;100.00;145249.13;4987653;28;20242;-64
2024/01/16 07:39:15;;;;;;;0.00;0.00;;;;;;;-4.16;100.00;145257.75;4984633;28;20236;-64
2024/01/16 07:41:42;;;;;;;0.07;0.07;;;;;;;-4.09;100.00;145273.78;4987507;28;20246;-64
2024/01/16 07:44:09;;;;;;;0.00;0.00;;;;;;;-4.00;100.00;145295.97;4982469;28;20224;-64
2024/01/16 07:46:35;;;;;;;0.00;0.00;;;;;;;-3.93;100.00;145311.97;4986478;28;20578;-64
2024/01/16 07:49:02;;;;;;;0.00;0.00;;;;;;;-3.84;100.00;145332.94;4982889;28;20227;-64
2024/01/16 07:51:30;;;;;;;0.00;0.00;;;;;;;-3.82;100.00;145339.06;4986978;28;20238;-64
2024/01/16 07:54:06;;;;;;;0.00;0.00;;;;;;;-3.75;100.00;145356.31;4984170;28;20718;-64
2024/01/16 07:56:33;;;;;;;0.00;0.00;;;;;;;-3.67;100.00;145373.59;4986310;28;20695;-64
2024/01/16 07:58:59;;;;;;;0.00;0.00;;;;;;;-3.60;100.00;145392.03;4984638;28;20240;-64
2024/01/16 08:01:26;;;;;;;0.00;0.00;;;;;;;-3.54;100.00;145405.63;4986405;28;20235;-64
2024/01/16 08:03:53;;;;;;;0.00;0.00;;;;;;;-3.51;100.00;145411.78;4982424;28;20324;-65
2024/01/16 08:06:19;;;;;;;0.00;0.00;;;;;;;-3.41;100.00;145437.69;4986353;28;20578;-64
2024/01/16 08:08:49;;;;;;;0.00;0.00;;;;;;;-3.34;100.00;145452.47;4987248;28;20220;-64
2024/01/16 08:11:16;;;;;;;0.00;0.00;;;;;;;-3.24;100.00;145477.16;4983091;28;20612;-64
2024/01/16 08:13:47;;;;;;;0.00;0.00;;;;;;;-3.12;100.00;145506.69;4986608;28;20235;-65
2024/01/16 08:16:14;;;;;;;0.00;0.00;;;;;;;-3.00;100.00;145535.09;4981398;28;20228;-64
2024/01/16 08:18:40;;;;;;;0.00;0.00;;;;;;;-2.91;99.66;145556.03;5000997;28;20223;-64
2024/01/16 08:21:07;;;;;;;0.00;0.00;;;;;;;-2.92;98.99;145552.34;4981970;28;20232;-64
2024/01/16 08:23:36;;;;;;;0.00;0.00;;;;;;;-2.85;98.66;145569.63;4986281;28;20595;-64
2024/01/16 08:26:05;;;;;;;0.00;0.00;;;;;;;-2.76;99.71;145591.81;4983837;28;20600;-64
2024/01/16 08:28:32;;;;;;;0.00;0.00;;;;;;;-2.63;99.01;145621.38;4985827;28;20564;-64
2024/01/16 08:30:59;;;;;;;0.00;0.00;;;;;;;-2.57;97.88;145637.44;4983011;28;20247;-64
2024/01/16 08:33:27;;;;;;;0.00;0.00;;;;;;;-2.66;95.96;145615.22;4985932;28;20267;-64
2024/01/16 08:35:54;;;;;;;0.00;0.00;;;;;;;-2.53;96.51;145646.06;4983650;28;20223;-64
2024/01/16 08:38:21;;;;;;;0.00;0.00;;;;;;;-2.42;95.20;145673.19;4986612;28;20239;-64
2024/01/16 08:40:48;;;;;;;0.00;0.00;;;;;;;-2.27;94.91;145709.00;4985385;28;20706;-64
2024/01/16 08:43:16;;;;;;;0.00;0.00;;;;;;;-2.04;94.42;145763.25;4983911;28;20229;-64
2024/01/16 08:45:43;;;;;;;0.00;0.00;;;;;;;-1.90;94.82;145795.34;4987046;28;20232;-64
2024/01/16 08:48:10;;;;;;;0.00;0.00;;;;;;;-1.79;94.03;145823.78;4973977;28;20584;-64
2024/01/16 08:50:36;;;;;;;0.00;0.00;;;;;;;-1.70;92.93;145843.53;4983309;28;20236;-64
2024/01/16 08:53:03;;;;;;;0.00;0.00;;;;;;;-1.51;92.79;145890.41;4974154;28;20213;-65
2024/01/16 08:55:30;;;;;;;0.00;0.00;;;;;;;-1.31;92.90;145937.31;4985087;28;20239;-64
2024/01/16 08:57:57;;;;;;;0.00;0.00;;;;;;;-1.12;91.76;145983.03;4982419;28;20694;-64
2024/01/16 09:00:25;;;;;;;0.00;0.00;;;;;;;-0.87;91.98;146041.06;4986496;28;20217;-64
2024/01/16 09:02:52;;;;;;;0.00;0.00;;;;;;;-0.67;90.85;146090.50;4984375;28;20236;-64
2024/01/16 09:05:21;;;;;;;0.00;0.00;;;;;;;-0.52;89.39;146126.31;4983201;28;20217;-64
2024/01/16 09:07:48;;;;;;;0.00;0.00;;;;;;;-0.30;88.51;146178.22;4982907;28;20231;-64
2024/01/16 09:10:15;;;;;;;0.00;0.00;;;;;;;-0.10;87.54;146225.19;4981612;28;20327;-65
2024/01/16 09:12:41;;;;;;;0.00;0.00;;;;;;;-0.02;86.07;146244.94;4983660;28;20229;-64
2024/01/16 09:15:09;;;;;;;0.00;0.00;;;;;;;0.15;85.94;146285.72;4978008;28;20247;-64
2024/01/16 09:17:38;;;;;;;0.00;0.00;;;;;;;0.11;83.80;146275.84;4985000;28;20315;-64
2024/01/16 09:20:07;;;;;;;0.00;0.00;;;;;;;0.02;82.23;146254.81;4979879;28;20317;-65
2024/01/16 09:22:33;;;;;;;0.00;0.00;;;;;;;-0.18;82.63;146207.88;4973596;28;20222;-65
2024/01/16 09:25:01;;;;;;;0.00;0.00;;;;;;;-0.16;83.51;146212.81;4992413;28;20244;-65
2024/01/16 09:27:30;;;;;;;0.00;0.00;;;;;;;-0.03;82.69;146242.47;4984944;28;20228;-64
2024/01/16 09:29:58;;;;;;;0.00;0.00;;;;;;;0.07;83.60;146267.16;4980894;28;20312;-65
2024/01/16 09:32:25;;;;;;;0.00;0.00;;;;;;;0.15;82.32;146285.72;4981391;28;20275;-65
2024/01/16 09:34:53;;;;;;;0.00;0.00;;;;;;;0.31;81.35;146322.81;4984141;28;20232;-65
2024/01/16 09:37:20;;;;;;;0.00;0.00;;;;;;;0.46;81.42;146359.91;4981511;28;20232;-64
2024/01/16 09:39:47;;;;;;;0.00;0.00;;;;;;;0.56;81.66;146383.38;4984327;28;20236;-64
2024/01/16 09:42:13;;;;;;;0.00;0.00;;;;;;;0.72;80.75;146422.97;4982930;28;20248;-65
2024/01/16 09:44:40;;;;;;;0.00;0.00;;;;;;;0.78;79.31;146436.56;4984760;28;20723;-64
2024/01/16 09:47:09;;;;;;;0.00;0.00;;;;;;;0.87;78.60;146458.81;4980087;28;20220;-64
2024/01/16 09:49:35;;;;;;;0.00;0.00;;;;;;;0.93;78.23;146472.44;4982491;28;20232;-64
2024/01/16 09:52:04;;;;;;;0.00;0.00;;;;;;;0.84;77.26;146450.19;4980215;28;20291;-64
2024/01/16 09:54:30;;;;;;;0.00;0.00;;;;;;;0.88;76.23;146461.28;4982772;28;20228;-63
2024/01/16 09:57:00;;;;;;;0.00;0.00;;;;;;;0.98;78.53;146483.56;4982062;28;20221;-63
2024/01/16 09:59:28;;;;;;;0.00;0.00;;;;;;;1.09;79.03;146510.78;4985004;28;20560;-63
2024/01/16 10:01:56;;;;;;;0.00;0.00;;;;;;;0.95;80.20;146476.13;4981199;28;20236;-63
2024/01/16 10:04:23;;;;;;;0.00;0.00;;;;;;;0.82;77.13;146446.44;4983003;28;20235;-63
2024/01/16 10:06:52;;;;;;;0.00;0.00;;;;;;;0.50;79.12;146368.56;4984555;28;20212;-64
2024/01/16 10:09:20;;;;;;;0.00;0.00;;;;;;;0.35;85.99;146332.72;4979727;28;20229;-64
2024/01/16 10:11:47;;;;;;;0.00;0.00;;;;;;;0.33;99.22;146328.97;4983693;28;20229;-64
2024/01/16 10:14:14;;;;;;;0.00;0.00;;;;;;;0.62;98.62;146396.97;4978969;28;20248;-63
2024/01/16 10:16:58;;;;;;;0.00;0.00;;;;;;;0.30;89.78;146321.56;4980558;28;20224;-65
2024/01/16 10:19:25;;;;;;;0.00;0.00;;;;;;;0.23;85.02;146305.50;4980594;28;20722;-64
2024/01/16 10:21:52;;;;;;;0.00;0.00;;;;;;;0.19;83.78;146294.34;4984581;28;20229;-64
2024/01/16 10:24:20;;;;;;;0.00;0.00;;;;;;;0.09;82.85;146272.09;4980863;28;20216;-65
2024/01/16 10:26:59;;;;;;;0.00;0.00;;;;;;;0.03;82.22;146256.06;4984568;28;20235;-65
2024/01/16 10:29:25;;;;;;;0.00;0.00;;;;;;;-0.09;82.78;146228.88;4980377;28;20769;-65
2024/01/16 10:31:52;;;;;;;0.00;0.00;;;;;;;-0.28;83.31;146183.16;4982448;28;20228;-65
2024/01/16 10:34:22;;;;;;;0.00;0.00;;;;;;;-0.32;84.03;146173.25;4981613;28;20588;-65
2024/01/16 10:36:50;;;;;;;0.00;0.00;;;;;;;-0.40;83.84;146153.50;4983989;28;20209;-65
2024/01/16 10:39:17;;;;;;;0.00;0.00;;;;;;;-0.46;81.45;146139.88;4976469;28;20739;-65
2024/01/16 10:41:55;;;;;;;0.00;0.00;;;;;;;-0.49;84.12;146133.72;4979658;28;20598;-64
2024/01/16 10:44:22;;;;;;;0.00;0.00;;;;;;;-0.46;84.49;146141.13;4983785;28;20298;-64
2024/01/16 10:46:48;;;;;;;0.00;0.00;;;;;;;-0.39;85.33;146157.19;4988120;28;20696;-64
2024/01/16 10:49:15;;;;;;;0.00;0.00;;;;;;;-0.27;84.44;146185.63;4984597;28;20236;-65
2024/01/16 10:51:44;;;;;;;0.00;0.00;;;;;;;-0.16;84.12;146211.56;4987304;28;20240;-64
2024/01/16 10:54:15;;;;;;;0.00;0.00;;;;;;;-0.12;82.88;146221.44;4984131;28;20242;-64
2024/01/16 10:56:46;;;;;;;0.00;0.00;;;;;;;-0.12;82.81;146221.44;4987592;28;20228;-64
2024/01/16 10:59:19;;;;;;;0.00;0.00;;;;;;;-0.22;82.40;146196.72;4983125;28;20377;-64
2024/01/16 11:01:51;;;;;;;0.00;0.00;;;;;;;-0.38;82.53;146159.66;4987913;28;20222;-64
2024/01/16 11:04:18;;;;;;;0.00;0.00;;;;;;;-0.39;83.54;146157.19;4985016;28;20232;-64
2024/01/16 11:06:46;;;;;;;0.00;0.00;;;;;;;-0.40;82.76;146153.50;4986792;28;20225;-64
2024/01/16 11:09:16;;;;;;;0.00;0.00;;;;;;;-0.78;85.55;146064.53;4984596;28;20224;-64
2024/01/16 11:11:44;;;;;;;0.00;0.00;;;;;;;-0.67;85.57;146090.50;4988185;28;20284;-64
2024/01/16 11:14:12;;;;;;;0.00;0.00;;;;;;;-0.59;86.08;146109.00;4984562;28;20231;-64
2024/01/16 11:16:40;;;;;;;0.00;0.00;;;;;;;-0.45;84.65;146142.34;4988145;28;20224;-64
2024/01/16 11:19:09;;;;;;;0.00;0.00;;;;;;;-0.46;83.94;146139.88;4985402;28;20244;-65
2024/01/16 11:21:37;;;;;;;0.00;0.00;;;;;;;-0.48;84.66;146134.94;4984448;28;20232;-64
2024/01/16 11:24:05;;;;;;;0.00;0.00;;;;;;;-0.36;84.01;146164.59;4981968;28;20225;-64
2024/01/16 11:26:33;;;;;;;0.00;0.00;;;;;;;-0.36;83.14;146164.59;4984044;28;20228;-64